createdAt,value
2022-08-27T00:00:16.400Z,5.20
2022-08-27T00:01:16.385Z,5.30
2022-08-27T00:02:16.399Z,5.60
2022-08-27T00:03:16.288Z,5.80
2022-08-27T00:04:16.310Z,7.20
2022-08-27T00:05:16.216Z,8.10
2022-08-27T00:06:16.192Z,9.00
2022-08-27T00:07:16.140Z,9.60
2022-08-27T00:08:16.102Z,11.20
2022-08-27T00:09:16.064Z,10.30
2022-08-27T00:10:16.029Z,10.80
2022-08-27T00:11:15.995Z,11.70
2022-08-27T00:12:15.963Z,11.40
2022-08-27T00:13:15.917Z,11.90
2022-08-27T00:14:15.879Z,13.60
2022-08-27T00:15:17.816Z,14.30
2022-08-27T00:16:15.856Z,14.80
2022-08-27T00:17:15.801Z,14.40
2022-08-27T00:18:17.034Z,14.50
2022-08-27T00:19:15.694Z,15.70
2022-08-27T00:20:15.676Z,15.90
2022-08-27T00:21:15.618Z,16.00
2022-08-27T00:22:15.580Z,18.40
2022-08-27T00:23:15.546Z,17.40
2022-08-27T00:24:15.522Z,19.60
2022-08-27T00:25:15.470Z,20.40
2022-08-27T00:26:15.431Z,20.70
2022-08-27T00:27:15.396Z,20.50
2022-08-27T00:28:15.355Z,21.80
2022-08-27T00:29:15.322Z,25.20
2022-08-27T00:30:15.293Z,24.00
2022-08-27T00:31:15.313Z,24.50
2022-08-27T00:32:15.262Z,23.70
2022-08-27T00:33:15.174Z,24.10
2022-08-27T00:34:15.135Z,23.90
2022-08-27T00:35:15.100Z,22.50
2022-08-27T00:36:15.072Z,22.90
2022-08-27T00:37:15.023Z,21.90
2022-08-27T00:38:14.985Z,21.30
2022-08-27T00:39:14.948Z,21.00
2022-08-27T00:40:14.987Z,20.90
2022-08-27T00:41:17.181Z,20.30
2022-08-27T00:42:14.850Z,18.40
2022-08-27T00:43:14.930Z,18.70
2022-08-27T00:44:14.762Z,17.20
2022-08-27T00:45:14.726Z,16.70
2022-08-27T00:46:14.748Z,17.70
2022-08-27T00:47:14.651Z,17.40
2022-08-27T00:48:14.625Z,18.00
2022-08-27T00:49:14.577Z,18.10
2022-08-27T00:50:14.540Z,19.10
2022-08-27T00:51:14.502Z,19.60
2022-08-27T00:52:14.465Z,21.10
2022-08-27T00:53:14.428Z,19.30
2022-08-27T00:54:16.119Z,20.00
2022-08-27T00:55:14.353Z,20.40
2022-08-27T00:56:14.332Z,20.70
2022-08-27T00:57:14.278Z,20.60
2022-08-27T00:58:14.243Z,19.30
2022-08-27T00:59:14.205Z,18.60
2022-08-27T01:00:14.190Z,20.10
2022-08-27T01:01:14.159Z,20.60
2022-08-27T01:02:14.111Z,20.00
2022-08-27T01:03:14.056Z,19.70
2022-08-27T01:04:14.020Z,19.80
2022-08-27T01:05:13.981Z,19.50
2022-08-27T01:06:16.004Z,19.20
2022-08-27T01:07:13.906Z,18.10
2022-08-27T01:08:13.871Z,16.00
2022-08-27T01:09:13.831Z,15.70
2022-08-27T01:10:13.792Z,13.70
2022-08-27T01:11:13.756Z,14.00
2022-08-27T01:12:13.734Z,13.60
2022-08-27T01:13:13.693Z,13.00
2022-08-27T01:14:13.643Z,13.50
2022-08-27T01:15:16.972Z,12.80
2022-08-27T01:16:13.613Z,12.50
2022-08-27T01:17:13.531Z,12.10
2022-08-27T01:18:13.495Z,11.30
2022-08-27T01:19:13.494Z,10.90
2022-08-27T01:20:13.420Z,10.80
2022-08-27T01:21:13.383Z,10.40
2022-08-27T01:22:21.927Z,10.40
2022-08-27T01:23:13.311Z,9.80
2022-08-27T01:24:13.271Z,10.40
2022-08-27T01:25:13.246Z,10.40
2022-08-27T01:26:13.195Z,9.60
2022-08-27T01:27:13.732Z,9.30
2022-08-27T01:28:13.120Z,9.40
2022-08-27T01:29:13.087Z,9.40
2022-08-27T01:30:13.063Z,9.40
2022-08-27T01:31:13.065Z,9.70
2022-08-27T01:32:12.973Z,9.30
2022-08-27T01:33:12.935Z,9.50
2022-08-27T01:34:12.897Z,9.20
2022-08-27T01:35:12.864Z,8.90
2022-08-27T01:36:12.836Z,8.70
2022-08-27T01:37:12.784Z,8.00
2022-08-27T01:38:18.875Z,8.00
2022-08-27T01:39:12.922Z,7.90
2022-08-27T01:40:13.526Z,8.00
2022-08-27T01:41:12.638Z,7.60
2022-08-27T01:42:12.615Z,7.40
2022-08-27T01:43:12.561Z,7.00
2022-08-27T01:44:12.524Z,7.20
2022-08-27T01:45:12.487Z,6.80
2022-08-27T01:46:12.479Z,6.30
2022-08-27T01:47:12.415Z,6.70
2022-08-27T01:48:12.524Z,6.70
2022-08-27T01:49:12.338Z,6.40
2022-08-27T01:50:12.299Z,6.00
2022-08-27T01:51:12.271Z,5.70
2022-08-27T01:52:12.225Z,5.60
2022-08-27T01:53:12.192Z,5.50
2022-08-27T01:54:12.165Z,5.20
2022-08-27T01:55:12.116Z,5.40
2022-08-27T01:56:12.083Z,5.10
2022-08-27T01:57:12.039Z,5.40
2022-08-27T01:58:13.248Z,5.00
2022-08-27T01:59:11.968Z,5.30
2022-08-27T02:00:11.938Z,4.70
2022-08-27T02:01:11.994Z,5.00
2022-08-27T02:02:11.923Z,5.10
2022-08-27T02:03:11.818Z,5.20
2022-08-27T02:04:11.777Z,4.90
2022-08-27T02:05:11.741Z,4.80
2022-08-27T02:06:11.717Z,4.60
2022-08-27T02:07:11.682Z,5.10
2022-08-27T02:08:11.735Z,5.10
2022-08-27T02:09:11.593Z,5.10
2022-08-27T02:10:11.553Z,5.00
2022-08-27T02:11:11.524Z,4.90
2022-08-27T02:12:11.502Z,5.10
2022-08-27T02:13:11.457Z,5.10
2022-08-27T02:14:12.952Z,5.00
2022-08-27T02:15:11.368Z,5.20
2022-08-27T02:16:11.371Z,4.90
2022-08-27T02:17:11.294Z,4.70
2022-08-27T02:18:11.479Z,5.10
2022-08-27T02:19:11.231Z,4.70
2022-08-27T02:20:11.180Z,4.80
2022-08-27T02:21:11.144Z,5.20
2022-08-27T02:22:11.106Z,5.20
2022-08-27T02:23:11.069Z,5.00
2022-08-27T02:24:11.035Z,5.10
2022-08-27T02:25:11.006Z,4.80
2022-08-27T02:26:10.961Z,4.60
2022-08-27T02:27:10.922Z,4.80
2022-08-27T02:28:11.076Z,4.60
2022-08-27T02:29:10.846Z,5.10
2022-08-27T02:30:10.810Z,4.90
2022-08-27T02:31:10.846Z,5.20
2022-08-27T02:32:20.628Z,4.60
2022-08-27T02:33:10.695Z,5.20
2022-08-27T02:34:10.661Z,4.80
2022-08-27T02:35:10.627Z,5.00
2022-08-27T02:36:10.585Z,5.30
2022-08-27T02:37:10.560Z,5.00
2022-08-27T02:38:10.648Z,5.00
2022-08-27T02:39:10.475Z,4.80
2022-08-27T02:40:10.486Z,5.00
2022-08-27T02:41:10.412Z,4.60
2022-08-27T02:42:10.362Z,5.10
2022-08-27T02:43:10.326Z,4.70
2022-08-27T02:44:10.766Z,4.70
2022-08-27T02:45:10.251Z,5.10
2022-08-27T02:46:10.239Z,5.00
2022-08-27T02:47:10.189Z,4.40
2022-08-27T02:48:10.303Z,4.90
2022-08-27T02:49:10.109Z,4.80
2022-08-27T02:50:10.068Z,4.80
2022-08-27T02:51:10.026Z,4.50
2022-08-27T02:52:09.991Z,4.80
2022-08-27T02:53:09.962Z,5.10
2022-08-27T02:54:09.915Z,5.00
2022-08-27T02:55:09.880Z,4.80
2022-08-27T02:56:09.842Z,4.90
2022-08-27T02:57:09.805Z,4.80
2022-08-27T02:58:10.079Z,5.00
2022-08-27T02:59:09.731Z,4.90
2022-08-27T03:00:09.694Z,4.20
2022-08-27T03:01:11.288Z,4.00
2022-08-27T03:02:09.705Z,4.20
2022-08-27T03:03:09.581Z,4.20
2022-08-27T03:04:09.558Z,4.30
2022-08-27T03:05:09.508Z,4.20
2022-08-27T03:06:09.471Z,4.20
2022-08-27T03:07:14.959Z,3.60
2022-08-27T03:08:09.600Z,4.10
2022-08-27T03:09:09.357Z,3.90
2022-08-27T03:10:09.341Z,3.50
2022-08-27T03:11:09.284Z,3.60
2022-08-27T03:12:09.251Z,3.50
2022-08-27T03:13:09.212Z,3.90
2022-08-27T03:14:09.193Z,3.70
2022-08-27T03:15:09.136Z,3.60
2022-08-27T03:16:09.170Z,3.70
2022-08-27T03:17:09.069Z,3.40
2022-08-27T03:18:09.043Z,3.40
2022-08-27T03:19:08.990Z,3.30
2022-08-27T03:20:08.967Z,3.30
2022-08-27T03:21:08.913Z,3.50
2022-08-27T03:22:08.893Z,3.10
2022-08-27T03:23:08.839Z,3.10
2022-08-27T03:24:11.285Z,3.30
2022-08-27T03:25:08.763Z,3.20
2022-08-27T03:26:08.736Z,3.30
2022-08-27T03:27:08.689Z,3.20
2022-08-27T03:28:15.223Z,3.10
2022-08-27T03:29:08.613Z,3.20
2022-08-27T03:30:08.580Z,3.10
2022-08-27T03:31:08.593Z,3.10
2022-08-27T03:32:08.503Z,3.10
2022-08-27T03:33:08.476Z,2.90
2022-08-27T03:34:08.442Z,2.90
2022-08-27T03:35:08.390Z,3.00
2022-08-27T03:36:08.365Z,3.10
2022-08-27T03:37:08.318Z,3.30
2022-08-27T03:38:08.282Z,2.90
2022-08-27T03:39:08.240Z,2.70
2022-08-27T03:40:08.302Z,3.10
2022-08-27T03:41:08.164Z,3.00
2022-08-27T03:42:08.146Z,3.00
2022-08-27T03:43:08.090Z,3.10
2022-08-27T03:44:08.057Z,3.10
2022-08-27T03:45:08.018Z,3.00
2022-08-27T03:46:08.052Z,2.80
2022-08-27T03:47:07.944Z,2.70
2022-08-27T03:48:07.934Z,3.10
2022-08-27T03:49:07.870Z,3.20
2022-08-27T03:50:07.831Z,2.70
2022-08-27T03:51:07.793Z,2.80
2022-08-27T03:52:07.755Z,2.60
2022-08-27T03:53:07.718Z,2.80
2022-08-27T03:54:07.692Z,2.70
2022-08-27T03:55:07.642Z,3.00
2022-08-27T03:56:07.609Z,3.00
2022-08-27T03:57:07.592Z,2.90
2022-08-27T03:58:07.555Z,2.90
2022-08-27T03:59:07.495Z,3.10
2022-08-27T04:00:07.473Z,2.90
2022-08-27T04:01:07.420Z,2.80
2022-08-27T04:02:07.448Z,2.90
2022-08-27T04:03:07.385Z,2.80
2022-08-27T04:04:07.310Z,2.90
2022-08-27T04:05:07.284Z,3.30
2022-08-27T04:06:07.233Z,2.90
2022-08-27T04:07:07.208Z,3.10
2022-08-27T04:08:07.179Z,3.20
2022-08-27T04:09:07.123Z,3.40
2022-08-27T04:10:07.081Z,3.40
2022-08-27T04:11:07.063Z,3.30
2022-08-27T04:12:07.011Z,3.80
2022-08-27T04:13:06.975Z,3.70
2022-08-27T04:14:19.724Z,3.50
2022-08-27T04:15:06.906Z,3.70
2022-08-27T04:16:06.921Z,3.70
2022-08-27T04:17:06.829Z,3.90
2022-08-27T04:18:06.792Z,4.00
2022-08-27T04:19:06.749Z,3.70
2022-08-27T04:20:34.122Z,3.80
2022-08-27T04:21:06.674Z,3.90
2022-08-27T04:22:06.646Z,3.70
2022-08-27T04:23:06.599Z,3.30
2022-08-27T04:24:06.565Z,3.70
2022-08-27T04:25:09.991Z,3.90
2022-08-27T04:26:06.491Z,3.50
2022-08-27T04:27:06.448Z,3.70
2022-08-27T04:28:06.423Z,3.70
2022-08-27T04:29:06.372Z,3.70
2022-08-27T04:30:06.337Z,3.40
2022-08-27T04:31:06.399Z,3.50
2022-08-27T04:32:06.263Z,3.50
2022-08-27T04:33:06.223Z,3.40
2022-08-27T04:34:06.199Z,3.40
2022-08-27T04:35:06.148Z,3.30
2022-08-27T04:36:06.114Z,3.30
2022-08-27T04:37:06.073Z,3.20
2022-08-27T04:38:06.038Z,3.30
2022-08-27T04:39:05.999Z,3.50
2022-08-27T04:40:06.034Z,3.30
2022-08-27T04:41:05.926Z,3.30
2022-08-27T04:42:05.887Z,3.30
2022-08-27T04:43:05.857Z,3.10
2022-08-27T04:44:05.818Z,3.30
2022-08-27T04:45:05.788Z,3.20
2022-08-27T04:46:05.799Z,3.50
2022-08-27T04:47:05.718Z,3.20
2022-08-27T04:48:05.666Z,3.30
2022-08-27T04:49:10.086Z,3.00
2022-08-27T04:50:05.801Z,3.20
2022-08-27T04:51:05.550Z,3.50
2022-08-27T04:52:05.513Z,3.20
2022-08-27T04:53:15.498Z,3.20
2022-08-27T04:54:05.465Z,3.50
2022-08-27T04:55:05.400Z,3.40
2022-08-27T04:56:05.367Z,3.50
2022-08-27T04:57:05.334Z,3.50
2022-08-27T04:58:05.289Z,3.20
2022-08-27T04:59:05.269Z,3.70
2022-08-27T05:00:05.213Z,3.10
2022-08-27T05:01:05.174Z,3.10
2022-08-27T05:02:05.222Z,3.20
2022-08-27T05:03:05.102Z,3.20
2022-08-27T05:04:05.076Z,3.20
2022-08-27T05:05:05.107Z,3.60
2022-08-27T05:06:04.991Z,3.30
2022-08-27T05:07:04.950Z,3.60
2022-08-27T05:08:04.912Z,3.20
2022-08-27T05:09:04.880Z,3.40
2022-08-27T05:10:04.837Z,3.50
2022-08-27T05:11:04.812Z,3.70
2022-08-27T05:12:04.763Z,3.20
2022-08-27T05:13:04.722Z,3.40
2022-08-27T05:14:04.685Z,3.80
2022-08-27T05:15:04.648Z,3.50
2022-08-27T05:16:04.748Z,3.60
2022-08-27T05:17:04.587Z,3.70
2022-08-27T05:18:04.640Z,3.60
2022-08-27T05:19:04.502Z,3.70
2022-08-27T05:20:04.466Z,3.60
2022-08-27T05:21:04.422Z,3.60
2022-08-27T05:22:04.397Z,4.00
2022-08-27T05:23:04.352Z,3.50
2022-08-27T05:24:04.310Z,4.00
2022-08-27T05:25:04.285Z,4.00
2022-08-27T05:26:04.233Z,3.90
2022-08-27T05:27:04.195Z,3.70
2022-08-27T05:28:04.227Z,3.90
2022-08-27T05:29:04.119Z,4.00
2022-08-27T05:30:04.083Z,4.10
2022-08-27T05:31:04.101Z,3.80
2022-08-27T05:32:04.010Z,3.80
2022-08-27T05:33:03.970Z,4.20
2022-08-27T05:34:08.477Z,4.30
2022-08-27T05:35:03.895Z,4.40
2022-08-27T05:36:03.863Z,4.40
2022-08-27T05:37:03.833Z,3.70
2022-08-27T05:38:03.811Z,4.40
2022-08-27T05:39:03.745Z,3.90
2022-08-27T05:40:03.741Z,4.10
2022-08-27T05:41:03.669Z,4.10
2022-08-27T05:42:03.668Z,4.30
2022-08-27T05:43:03.599Z,4.20
2022-08-27T05:44:13.782Z,4.20
2022-08-27T05:45:03.517Z,4.70
2022-08-27T05:46:03.570Z,4.30
2022-08-27T05:47:03.445Z,4.40
2022-08-27T05:48:03.551Z,4.40
2022-08-27T05:49:03.367Z,4.30
2022-08-27T05:50:03.331Z,4.30
2022-08-27T05:51:03.291Z,4.30
2022-08-27T05:52:03.254Z,4.60
2022-08-27T05:53:03.215Z,4.50
2022-08-27T05:54:08.058Z,5.00
2022-08-27T05:55:03.142Z,4.60
2022-08-27T05:56:03.110Z,4.50
2022-08-27T05:57:03.064Z,4.60
2022-08-27T05:58:03.031Z,4.90
2022-08-27T05:59:02.990Z,4.70
2022-08-27T06:00:02.971Z,4.70
2022-08-27T06:01:05.904Z,5.00
2022-08-27T06:02:02.878Z,4.90
2022-08-27T06:03:02.895Z,4.50
2022-08-27T06:04:02.824Z,4.50
2022-08-27T06:05:02.831Z,4.90
2022-08-27T06:06:02.735Z,4.60
2022-08-27T06:07:02.692Z,4.60
2022-08-27T06:08:02.660Z,4.70
2022-08-27T06:09:02.612Z,4.90
2022-08-27T06:10:02.578Z,4.90
2022-08-27T06:11:02.547Z,4.60
2022-08-27T06:12:02.518Z,4.20
2022-08-27T06:13:02.464Z,4.10
2022-08-27T06:14:02.428Z,4.40
2022-08-27T06:15:02.386Z,4.70
2022-08-27T06:16:02.428Z,4.50
2022-08-27T06:17:02.312Z,4.70
2022-08-27T06:18:02.289Z,4.60
2022-08-27T06:19:02.253Z,4.60
2022-08-27T06:20:02.202Z,4.50
2022-08-27T06:21:02.161Z,4.50
2022-08-27T06:22:10.530Z,4.80
2022-08-27T06:23:02.090Z,4.70
2022-08-27T06:24:02.053Z,4.40
2022-08-27T06:25:02.026Z,4.80
2022-08-27T06:26:01.977Z,4.30
2022-08-27T06:27:01.938Z,4.40
2022-08-27T06:28:01.901Z,4.50
2022-08-27T06:29:01.862Z,4.90
2022-08-27T06:30:01.826Z,5.00
2022-08-27T06:31:01.831Z,5.00
2022-08-27T06:32:01.755Z,4.70
2022-08-27T06:33:01.714Z,4.70
2022-08-27T06:34:03.051Z,4.50
2022-08-27T06:35:01.648Z,4.90
2022-08-27T06:36:01.603Z,5.00
2022-08-27T06:37:01.570Z,5.00
2022-08-27T06:38:01.528Z,4.80
2022-08-27T06:39:01.498Z,4.90
2022-08-27T06:40:01.504Z,4.60
2022-08-27T06:41:01.412Z,4.80
2022-08-27T06:42:01.380Z,5.10
2022-08-27T06:43:01.341Z,4.80
2022-08-27T06:44:01.302Z,4.80
2022-08-27T06:45:01.273Z,5.00
2022-08-27T06:46:01.278Z,4.90
2022-08-27T06:47:01.190Z,4.90
2022-08-27T06:48:01.162Z,5.20
2022-08-27T06:49:01.116Z,4.80
2022-08-27T06:50:01.078Z,5.10
2022-08-27T06:51:01.048Z,5.20
2022-08-27T06:52:01.004Z,4.80
2022-08-27T06:53:00.964Z,5.00
2022-08-27T06:54:00.926Z,5.00
2022-08-27T06:55:00.888Z,5.00
2022-08-27T06:56:00.858Z,4.90
2022-08-27T06:57:00.828Z,4.60
2022-08-27T06:58:00.779Z,4.90
2022-08-27T06:59:00.741Z,4.90
2022-08-27T07:00:00.704Z,4.90
2022-08-27T07:01:00.710Z,5.20
2022-08-27T07:02:00.669Z,5.10
2022-08-27T07:03:00.602Z,4.90
2022-08-27T07:04:00.557Z,5.10
2022-08-27T07:05:00.516Z,5.00
2022-08-27T07:06:00.482Z,4.60
2022-08-27T07:07:00.441Z,4.50
2022-08-27T07:08:00.402Z,4.90
2022-08-27T07:09:00.383Z,4.10
2022-08-27T07:10:00.340Z,4.60
2022-08-27T07:11:00.295Z,4.40
2022-08-27T07:12:00.257Z,4.50
2022-08-27T07:13:00.220Z,4.40
2022-08-27T07:14:00.180Z,4.50
2022-08-27T07:15:00.161Z,4.30
2022-08-27T07:16:00.196Z,4.60
2022-08-27T07:17:00.069Z,4.30
2022-08-27T07:18:00.030Z,3.90
2022-08-27T07:19:04.258Z,4.30
2022-08-27T07:19:59.959Z,4.40
2022-08-27T07:20:59.937Z,4.20
2022-08-27T07:21:59.882Z,3.90
2022-08-27T07:22:59.848Z,4.10
2022-08-27T07:23:59.827Z,4.20
2022-08-27T07:24:59.772Z,4.30
2022-08-27T07:25:59.737Z,4.20
2022-08-27T07:26:59.714Z,4.20
2022-08-27T07:27:59.677Z,4.60
2022-08-27T07:28:59.625Z,3.80
2022-08-27T07:29:59.588Z,5.10
2022-08-27T07:30:59.594Z,4.70
2022-08-27T07:31:59.534Z,4.20
2022-08-27T07:32:59.481Z,4.50
2022-08-27T07:33:59.441Z,4.60
2022-08-27T07:34:59.405Z,4.30
2022-08-27T07:35:59.368Z,5.90
2022-08-27T07:36:59.332Z,4.10
2022-08-27T07:37:59.306Z,4.30
2022-08-27T07:39:01.400Z,4.10
2022-08-27T07:39:59.259Z,3.80
2022-08-27T07:40:59.188Z,4.20
2022-08-27T07:41:59.143Z,4.30
2022-08-27T07:42:59.113Z,4.40
2022-08-27T07:43:59.086Z,3.80
2022-08-27T07:44:59.040Z,4.00
2022-08-27T07:45:59.032Z,4.40
2022-08-27T07:46:58.966Z,3.90
2022-08-27T07:47:58.933Z,4.20
2022-08-27T07:48:58.893Z,4.40
2022-08-27T07:49:58.868Z,3.90
2022-08-27T07:50:58.821Z,3.90
2022-08-27T07:51:58.786Z,3.90
2022-08-27T07:52:58.753Z,4.10
2022-08-27T07:53:58.709Z,3.80
2022-08-27T07:54:58.689Z,4.10
2022-08-27T07:55:58.643Z,4.10
2022-08-27T07:56:58.606Z,4.10
2022-08-27T07:57:58.566Z,4.60
2022-08-27T07:58:58.532Z,4.10
2022-08-27T07:59:58.495Z,4.30
2022-08-27T08:00:58.505Z,4.40
2022-08-27T08:01:58.421Z,4.40
2022-08-27T08:02:58.489Z,4.30
2022-08-27T08:03:58.353Z,4.10
2022-08-27T08:04:58.315Z,3.90
2022-08-27T08:05:58.283Z,4.20
2022-08-27T08:06:58.252Z,4.00
2022-08-27T08:07:58.207Z,3.70
2022-08-27T08:08:58.191Z,3.90
2022-08-27T08:09:58.134Z,4.00
2022-08-27T08:10:58.101Z,3.90
2022-08-27T08:11:58.063Z,3.90
2022-08-27T08:12:58.026Z,3.70
2022-08-27T08:13:57.990Z,3.70
2022-08-27T08:14:57.969Z,3.60
2022-08-27T08:15:57.921Z,3.90
2022-08-27T08:16:57.913Z,3.60
2022-08-27T08:17:57.850Z,3.60
2022-08-27T08:18:57.817Z,3.90
2022-08-27T08:20:18.589Z,3.60
2022-08-27T08:20:58.825Z,3.70
2022-08-27T08:22:00.328Z,3.70
2022-08-27T08:22:57.671Z,3.40
2022-08-27T08:23:57.637Z,3.50
2022-08-27T08:24:57.600Z,3.60
2022-08-27T08:25:57.576Z,3.40
2022-08-27T08:26:57.530Z,3.70
2022-08-27T08:27:57.494Z,3.60
2022-08-27T08:28:57.478Z,3.80
2022-08-27T08:29:57.423Z,3.90
2022-08-27T08:30:57.443Z,4.10
2022-08-27T08:31:57.386Z,3.90
2022-08-27T08:32:57.319Z,3.90
2022-08-27T08:33:57.280Z,4.00
2022-08-27T08:34:57.246Z,3.80
2022-08-27T08:35:57.211Z,3.70
2022-08-27T08:36:57.175Z,4.30
2022-08-27T08:37:57.153Z,4.20
2022-08-27T08:38:57.109Z,4.30
2022-08-27T08:39:57.104Z,4.20
2022-08-27T08:40:57.033Z,4.50
2022-08-27T08:41:57.010Z,5.00
2022-08-27T08:42:56.972Z,4.50
2022-08-27T08:43:56.958Z,4.40
2022-08-27T08:44:56.893Z,4.20
2022-08-27T08:45:56.907Z,4.30
2022-08-27T08:46:56.822Z,4.20
2022-08-27T08:47:56.787Z,4.00
2022-08-27T08:48:56.753Z,4.00
2022-08-27T08:49:56.730Z,4.50
2022-08-27T08:50:56.684Z,4.10
2022-08-27T08:51:56.651Z,4.00
2022-08-27T08:52:56.616Z,3.50
2022-08-27T08:53:56.574Z,4.20
2022-08-27T08:54:56.543Z,4.30
2022-08-27T08:55:56.527Z,3.70
2022-08-27T08:56:56.470Z,4.10
2022-08-27T08:57:56.438Z,3.90
2022-08-27T08:58:56.401Z,4.20
2022-08-27T08:59:56.364Z,4.20
2022-08-27T09:00:56.352Z,4.00
2022-08-27T09:01:56.308Z,4.00
2022-08-27T09:02:56.260Z,3.70
2022-08-27T09:03:56.275Z,4.10
2022-08-27T09:04:56.191Z,3.80
2022-08-27T09:05:56.167Z,3.50
2022-08-27T09:06:56.121Z,3.60
2022-08-27T09:08:15.127Z,3.70
2022-08-27T09:08:56.050Z,3.60
2022-08-27T09:09:56.016Z,3.60
2022-08-27T09:10:55.986Z,3.50
2022-08-27T09:11:55.957Z,3.30
2022-08-27T09:12:55.910Z,3.20
2022-08-27T09:13:55.888Z,3.30
2022-08-27T09:14:55.841Z,3.40
2022-08-27T09:15:55.812Z,3.20
2022-08-27T09:16:56.731Z,3.00
2022-08-27T09:17:55.738Z,3.00
2022-08-27T09:18:55.700Z,3.10
2022-08-27T09:19:55.684Z,3.10
2022-08-27T09:20:55.631Z,3.40
2022-08-27T09:21:55.598Z,3.70
2022-08-27T09:22:55.567Z,3.20
2022-08-27T09:23:55.524Z,3.50
2022-08-27T09:24:55.491Z,3.50
2022-08-27T09:25:55.463Z,3.00
2022-08-27T09:26:55.432Z,3.20
2022-08-27T09:27:55.386Z,3.60
2022-08-27T09:28:55.347Z,3.60
2022-08-27T09:29:55.315Z,3.20
2022-08-27T09:30:55.316Z,3.30
2022-08-27T09:31:55.243Z,3.30
2022-08-27T09:32:55.222Z,3.30
2022-08-27T09:33:57.021Z,3.30
2022-08-27T09:34:55.138Z,3.10
2022-08-27T09:35:55.102Z,3.10
2022-08-27T09:36:55.068Z,3.30
2022-08-27T09:37:55.031Z,3.00
2022-08-27T09:38:57.792Z,3.50
2022-08-27T09:39:55.001Z,3.20
2022-08-27T09:40:54.927Z,2.90
2022-08-27T09:41:54.890Z,3.70
2022-08-27T09:42:54.857Z,3.50
2022-08-27T09:43:54.828Z,3.30
2022-08-27T09:44:54.797Z,3.30
2022-08-27T09:45:54.793Z,3.20
2022-08-27T09:46:54.721Z,3.50
2022-08-27T09:47:54.682Z,3.30
2022-08-27T09:48:54.643Z,3.50
2022-08-27T09:49:54.611Z,3.20
2022-08-27T09:50:54.588Z,3.20
2022-08-27T09:51:54.547Z,3.00
2022-08-27T09:52:54.510Z,3.40
2022-08-27T09:53:54.482Z,3.10
2022-08-27T09:54:54.440Z,3.00
2022-08-27T09:55:54.403Z,3.30
2022-08-27T09:56:54.379Z,3.10
2022-08-27T09:57:54.331Z,3.20
2022-08-27T09:58:54.313Z,3.00
2022-08-27T09:59:54.265Z,3.00
2022-08-27T10:00:54.245Z,2.90
2022-08-27T10:01:54.194Z,3.00
2022-08-27T10:02:54.175Z,3.20
2022-08-27T10:03:54.152Z,3.30
2022-08-27T10:04:54.101Z,3.00
2022-08-27T10:05:54.053Z,4.50
2022-08-27T10:06:54.019Z,4.00
2022-08-27T10:07:53.981Z,4.50
2022-08-27T10:08:53.949Z,3.00
2022-08-27T10:09:53.924Z,3.00
2022-08-27T10:10:53.878Z,2.70
2022-08-27T10:11:53.842Z,2.90
2022-08-27T10:12:53.805Z,3.20
2022-08-27T10:13:53.777Z,2.90
2022-08-27T10:14:53.739Z,3.10
2022-08-27T10:15:53.716Z,2.80
2022-08-27T10:16:53.722Z,3.10
2022-08-27T10:17:53.638Z,2.70
2022-08-27T10:18:53.607Z,3.00
2022-08-27T10:19:53.564Z,2.80
2022-08-27T10:20:53.527Z,2.80
2022-08-27T10:21:53.502Z,2.90
2022-08-27T10:22:53.457Z,2.80
2022-08-27T10:23:53.421Z,3.00
2022-08-27T10:24:53.390Z,2.70
2022-08-27T10:25:53.365Z,3.10
2022-08-27T10:26:53.318Z,3.00
2022-08-27T10:27:53.281Z,2.70
2022-08-27T10:28:53.247Z,2.90
2022-08-27T10:29:53.212Z,2.40
2022-08-27T10:30:53.177Z,2.70
2022-08-27T10:31:53.236Z,2.80
2022-08-27T10:32:55.003Z,2.50
2022-08-27T10:33:53.075Z,13.20
2022-08-27T10:34:53.040Z,3.00
2022-08-27T10:35:54.690Z,8.50
2022-08-27T10:36:52.980Z,2.90
2022-08-27T10:37:52.947Z,2.70
2022-08-27T10:38:52.904Z,2.60
2022-08-27T10:39:52.936Z,2.80
2022-08-27T10:40:52.831Z,2.50
2022-08-27T10:41:52.798Z,2.50
2022-08-27T10:42:56.276Z,2.70
2022-08-27T10:43:52.740Z,2.60
2022-08-27T10:44:52.695Z,2.30
2022-08-27T10:45:52.714Z,2.30
2022-08-27T10:46:52.625Z,2.40
2022-08-27T10:47:52.592Z,2.40
2022-08-27T10:48:52.568Z,2.40
2022-08-27T10:49:52.521Z,2.30
2022-08-27T10:50:52.487Z,4.50
2022-08-27T10:51:52.453Z,9.20
2022-08-27T10:52:52.453Z,8.10
2022-08-27T10:54:01.683Z,2.40
2022-08-27T10:54:52.348Z,2.90
2022-08-27T10:55:52.314Z,2.80
2022-08-27T10:57:08.356Z,2.40
2022-08-27T10:57:58.909Z,2.80
2022-08-27T10:58:52.225Z,2.50
2022-08-27T10:59:52.176Z,2.20
2022-08-27T11:00:52.172Z,2.30
2022-08-27T11:01:52.147Z,2.30
2022-08-27T11:02:52.075Z,2.30
2022-08-27T11:03:52.046Z,2.20
2022-08-27T11:04:52.014Z,2.30
2022-08-27T11:05:51.972Z,2.40
2022-08-27T11:06:51.940Z,2.20
2022-08-27T11:07:51.904Z,2.40
2022-08-27T11:08:51.872Z,2.60
2022-08-27T11:09:56.642Z,2.50
2022-08-27T11:10:51.813Z,2.70
2022-08-27T11:12:51.734Z,2.40
2022-08-27T11:13:51.699Z,2.40
2022-08-27T11:14:51.676Z,2.50
2022-08-27T11:15:51.632Z,2.70
2022-08-27T11:16:51.681Z,2.40
2022-08-27T11:17:51.562Z,2.40
2022-08-27T11:18:51.533Z,2.70
2022-08-27T11:19:51.499Z,2.80
2022-08-27T11:20:51.471Z,2.40
2022-08-27T11:21:51.429Z,2.30
2022-08-27T11:22:51.401Z,2.30
2022-08-27T11:23:51.361Z,7.60
2022-08-27T11:24:51.325Z,2.40
2022-08-27T11:25:51.293Z,2.50
2022-08-27T11:26:51.268Z,3.90
2022-08-27T11:27:51.228Z,2.60
2022-08-27T11:28:51.193Z,3.00
2022-08-27T11:29:51.158Z,8.50
2022-08-27T11:30:51.131Z,2.50
2022-08-27T11:31:51.163Z,2.60
2022-08-27T11:32:51.065Z,2.30
2022-08-27T11:33:51.035Z,2.70
2022-08-27T11:34:50.986Z,2.30
2022-08-27T11:35:50.954Z,2.40
2022-08-27T11:36:54.445Z,2.40
2022-08-27T11:37:50.885Z,2.40
2022-08-27T11:38:50.862Z,2.40
2022-08-27T11:39:51.983Z,2.10
2022-08-27T11:40:50.782Z,2.40
2022-08-27T11:41:50.750Z,2.20
2022-08-27T11:42:50.729Z,2.40
2022-08-27T11:43:50.682Z,2.30
2022-08-27T11:44:50.652Z,2.30
2022-08-27T11:45:50.614Z,2.30
2022-08-27T11:46:50.620Z,2.40
2022-08-27T11:47:50.547Z,2.40
2022-08-27T11:48:50.525Z,2.20
2022-08-27T11:49:50.479Z,2.30
2022-08-27T11:50:50.442Z,2.20
2022-08-27T11:51:50.414Z,2.20
2022-08-27T11:52:50.376Z,2.40
2022-08-27T11:53:52.574Z,2.10
2022-08-27T11:54:50.321Z,2.30
2022-08-27T11:55:50.277Z,2.40
2022-08-27T11:56:50.242Z,4.30
2022-08-27T11:57:50.208Z,13.10
2022-08-27T11:58:52.779Z,2.50
2022-08-27T11:59:50.143Z,5.00
2022-08-27T12:00:50.118Z,2.10
2022-08-27T12:01:50.073Z,3.80
2022-08-27T12:02:50.062Z,2.40
2022-08-27T12:03:50.539Z,2.50
2022-08-27T12:04:49.971Z,2.80
2022-08-27T12:05:49.939Z,2.60
2022-08-27T12:06:49.912Z,2.30
2022-08-27T12:07:49.870Z,2.40
2022-08-27T12:08:49.834Z,3.00
2022-08-27T12:09:49.804Z,2.40
2022-08-27T12:10:49.782Z,2.10
2022-08-27T12:11:53.385Z,2.20
2022-08-27T12:12:49.696Z,2.00
2022-08-27T12:13:49.663Z,2.10
2022-08-27T12:14:49.632Z,2.00
2022-08-27T12:15:49.595Z,2.30
2022-08-27T12:16:49.679Z,2.20
2022-08-27T12:17:49.531Z,2.40
2022-08-27T12:18:49.494Z,2.20
2022-08-27T12:19:49.461Z,2.30
2022-08-27T12:20:49.428Z,2.30
2022-08-27T12:21:49.406Z,2.30
2022-08-27T12:22:49.358Z,2.10
2022-08-27T12:23:56.280Z,2.10
2022-08-27T12:24:49.299Z,2.30
2022-08-27T12:25:49.258Z,2.20
2022-08-27T12:26:50.219Z,1.90
2022-08-27T12:27:49.195Z,2.30
2022-08-27T12:28:49.155Z,2.60
2022-08-27T12:29:49.122Z,2.50
2022-08-27T12:30:49.091Z,2.40
2022-08-27T12:31:49.105Z,2.40
2022-08-27T12:32:49.033Z,2.20
2022-08-27T12:33:48.988Z,2.20
2022-08-27T12:34:48.952Z,2.40
2022-08-27T12:35:48.922Z,2.40
2022-08-27T12:36:48.885Z,2.40
2022-08-27T12:37:48.870Z,2.40
2022-08-27T12:38:50.612Z,3.00
2022-08-27T12:39:48.783Z,2.90
2022-08-27T12:40:48.751Z,2.90
2022-08-27T12:41:48.718Z,2.60
2022-08-27T12:42:48.694Z,2.80
2022-08-27T12:43:48.649Z,2.70
2022-08-27T12:44:48.612Z,4.00
2022-08-27T12:45:48.580Z,3.50
2022-08-27T12:46:48.585Z,3.90
2022-08-27T12:47:51.030Z,3.80
2022-08-27T12:48:48.499Z,3.60
2022-08-27T12:49:51.494Z,3.90
2022-08-27T12:50:48.412Z,3.70
2022-08-27T12:51:48.381Z,4.60
2022-08-27T12:52:48.343Z,4.30
2022-08-27T12:53:48.322Z,5.10
2022-08-27T12:54:48.277Z,5.70
2022-08-27T12:55:48.244Z,11.50
2022-08-27T12:56:48.208Z,6.40
2022-08-27T12:57:48.179Z,5.50
2022-08-27T12:58:48.142Z,5.10
2022-08-27T12:59:48.122Z,5.80
2022-08-27T13:00:48.157Z,5.30
2022-08-27T13:01:48.085Z,8.70
2022-08-27T13:02:48.017Z,8.30
2022-08-27T13:03:47.977Z,5.30
2022-08-27T13:04:47.941Z,5.20
2022-08-27T13:05:47.908Z,5.60
2022-08-27T13:06:47.873Z,4.90
2022-08-27T13:07:47.843Z,4.80
2022-08-27T13:08:47.818Z,4.90
2022-08-27T13:09:47.775Z,4.80
2022-08-27T13:10:47.739Z,4.80
2022-08-27T13:11:47.704Z,4.80
2022-08-27T13:12:47.670Z,4.40
2022-08-27T13:13:47.639Z,4.40
2022-08-27T13:14:48.958Z,4.50
2022-08-27T13:15:47.610Z,5.00